sensor_id;sensor_type;location;lat;lon;timestamp;temperature;humidity
37786;DHT22;23625;48.784;9.336;2022-12-07T00:03:34;4.00;99.90
37786;DHT22;23625;48.784;9.336;2022-12-07T00:06:01;4.00;99.90
37786;DHT22;23625;48.784;9.336;2022-12-07T00:08:26;4.00;99.90
37786;DHT22;23625;48.784;9.336;2022-12-07T00:10:52;4.00;99.90
37786;DHT22;23625;48.784;9.336;2022-12-07T00:13:18;4.00;99.90
37786;DHT22;23625;48.784;9.336;2022-12-07T00:15:44;4.00;99.90
37786;DHT22;23625;48.784;9.336;2022-12-07T00:18:09;4.00;99.90
37786;DHT22;23625;48.784;9.336;2022-12-07T00:20:35;4.10;99.90
37786;DHT22;23625;48.784;9.336;2022-12-07T00:23:00;4.10;99.90
37786;DHT22;23625;48.784;9.336;2022-12-07T00:25:26;4.00;99.90
37786;DHT22;23625;48.784;9.336;2022-12-07T00:27:53;4.00;99.90
37786;DHT22;23625;48.784;9.336;2022-12-07T00:30:21;4.00;99.90
37786;DHT22;23625;48.784;9.336;2022-12-07T00:32:47;4.00;99.90
37786;DHT22;23625;48.784;9.336;2022-12-07T00:35:13;4.00;99.90
37786;DHT22;23625;48.784;9.336;2022-12-07T00:37:39;4.00;99.90
37786;DHT22;23625;48.784;9.336;2022-12-07T00:40:05;3.90;99.90
37786;DHT22;23625;48.784;9.336;2022-12-07T00:42:31;3.90;99.90
37786;DHT22;23625;48.784;9.336;2022-12-07T00:44:56;3.90;99.90
37786;DHT22;23625;48.784;9.336;2022-12-07T00:47:22;3.90;99.90
37786;DHT22;23625;48.784;9.336;2022-12-07T00:49:47;3.90;99.90
37786;DHT22;23625;48.784;9.336;2022-12-07T00:52:13;3.90;99.90
37786;DHT22;23625;48.784;9.336;2022-12-07T00:54:40;3.90;99.90
37786;DHT22;23625;48.784;9.336;2022-12-07T00:57:05;3.90;99.90
37786;DHT22;23625;48.784;9.336;2022-12-07T00:59:31;4.00;99.90
37786;DHT22;23625;48.784;9.336;2022-12-07T01:01:57;4.00;99.90
37786;DHT22;23625;48.784;9.336;2022-12-07T01:04:22;4.00;99.90
37786;DHT22;23625;48.784;9.336;2022-12-07T01:06:48;4.00;99.90
37786;DHT22;23625;48.784;9.336;2022-12-07T01:09:13;3.90;99.90
37786;DHT22;23625;48.784;9.336;2022-12-07T01:11:39;3.90;99.90
37786;DHT22;23625;48.784;9.336;2022-12-07T01:14:04;3.90;99.90
37786;DHT22;23625;48.784;9.336;2022-12-07T01:16:31;3.90;99.90
37786;DHT22;23625;48.784;9.336;2022-12-07T01:18:58;3.90;99.90
37786;DHT22;23625;48.784;9.336;2022-12-07T01:21:26;3.90;99.90
37786;DHT22;23625;48.784;9.336;2022-12-07T01:23:52;3.90;99.90
37786;DHT22;23625;48.784;9.336;2022-12-07T01:26:20;3.80;99.90
37786;DHT22;23625;48.784;9.336;2022-12-07T01:28:46;3.80;99.90
37786;DHT22;23625;48.784;9.336;2022-12-07T01:31:14;3.90;99.90
37786;DHT22;23625;48.784;9.336;2022-12-07T01:33:42;3.90;99.90
37786;DHT22;23625;48.784;9.336;2022-12-07T01:38:41;3.80;99.90
37786;DHT22;23625;48.784;9.336;2022-12-07T01:41:07;3.80;99.90
37786;DHT22;23625;48.784;9.336;2022-12-07T01:43:34;3.80;99.90
37786;DHT22;23625;48.784;9.336;2022-12-07T01:46:01;3.70;99.90
37786;DHT22;23625;48.784;9.336;2022-12-07T01:48:39;3.70;99.90
37786;DHT22;23625;48.784;9.336;2022-12-07T01:51:09;3.80;99.90
37786;DHT22;23625;48.784;9.336;2022-12-07T01:53:40;3.70;99.90
37786;DHT22;23625;48.784;9.336;2022-12-07T01:56:08;3.70;99.90
37786;DHT22;23625;48.784;9.336;2022-12-07T01:58:36;3.70;99.90
37786;DHT22;23625;48.784;9.336;2022-12-07T02:01:02;3.70;99.90
37786;DHT22;23625;48.784;9.336;2022-12-07T02:03:43;3.70;99.90
37786;DHT22;23625;48.784;9.336;2022-12-07T02:06:11;3.70;99.90
37786;DHT22;23625;48.784;9.336;2022-12-07T02:08:38;3.70;99.90
37786;DHT22;23625;48.784;9.336;2022-12-07T02:11:05;3.70;99.90
37786;DHT22;23625;48.784;9.336;2022-12-07T02:13:34;3.70;99.90
37786;DHT22;23625;48.784;9.336;2022-12-07T02:27:11;3.70;99.90
37786;DHT22;23625;48.784;9.336;2022-12-07T02:29:44;3.60;99.90
37786;DHT22;23625;48.784;9.336;2022-12-07T02:32:19;3.60;99.90
37786;DHT22;23625;48.784;9.336;2022-12-07T02:35:11;3.60;99.90
37786;DHT22;23625;48.784;9.336;2022-12-07T02:40:29;3.60;99.90
37786;DHT22;23625;48.784;9.336;2022-12-07T02:43:19;3.60;99.90
37786;DHT22;23625;48.784;9.336;2022-12-07T02:45:46;3.60;99.90
37786;DHT22;23625;48.784;9.336;2022-12-07T02:48:16;3.60;99.90
37786;DHT22;23625;48.784;9.336;2022-12-07T02:50:48;3.60;99.90
37786;DHT22;23625;48.784;9.336;2022-12-07T02:53:34;3.50;99.90
37786;DHT22;23625;48.784;9.336;2022-12-07T03:01:55;3.50;99.90
37786;DHT22;23625;48.784;9.336;2022-12-07T03:04:53;3.40;99.90
37786;DHT22;23625;48.784;9.336;2022-12-07T03:07:35;3.40;99.90
37786;DHT22;23625;48.784;9.336;2022-12-07T03:15:25;3.30;99.90
37786;DHT22;23625;48.784;9.336;2022-12-07T03:17:54;3.30;99.90
37786;DHT22;23625;48.784;9.336;2022-12-07T03:20:23;3.30;99.90
37786;DHT22;23625;48.784;9.336;2022-12-07T03:22:51;3.30;99.90
37786;DHT22;23625;48.784;9.336;2022-12-07T03:25:19;3.30;99.90
37786;DHT22;23625;48.784;9.336;2022-12-07T03:28:00;3.20;99.90
37786;DHT22;23625;48.784;9.336;2022-12-07T03:33:07;3.30;99.90
37786;DHT22;23625;48.784;9.336;2022-12-07T03:35:41;3.20;99.90
37786;DHT22;23625;48.784;9.336;2022-12-07T03:38:17;3.20;99.90
37786;DHT22;23625;48.784;9.336;2022-12-07T03:41:05;3.20;99.90
37786;DHT22;23625;48.784;9.336;2022-12-07T03:43:32;3.20;99.90
37786;DHT22;23625;48.784;9.336;2022-12-07T03:46:05;3.20;99.90
37786;DHT22;23625;48.784;9.336;2022-12-07T03:48:46;3.20;99.90
37786;DHT22;23625;48.784;9.336;2022-12-07T03:51:21;3.20;99.90
37786;DHT22;23625;48.784;9.336;2022-12-07T03:54:13;3.20;99.90
37786;DHT22;23625;48.784;9.336;2022-12-07T03:56:40;3.20;99.90
37786;DHT22;23625;48.784;9.336;2022-12-07T03:59:08;3.20;99.90
37786;DHT22;23625;48.784;9.336;2022-12-07T04:01:34;3.20;99.90
37786;DHT22;23625;48.784;9.336;2022-12-07T04:03:59;3.20;99.90
37786;DHT22;23625;48.784;9.336;2022-12-07T04:06:25;3.10;99.90
37786;DHT22;23625;48.784;9.336;2022-12-07T04:08:51;3.10;99.90
37786;DHT22;23625;48.784;9.336;2022-12-07T04:11:17;3.10;99.90
37786;DHT22;23625;48.784;9.336;2022-12-07T04:13:43;3.10;99.90
37786;DHT22;23625;48.784;9.336;2022-12-07T04:16:27;3.10;99.90
37786;DHT22;23625;48.784;9.336;2022-12-07T04:18:52;3.00;99.90
37786;DHT22;23625;48.784;9.336;2022-12-07T04:21:18;3.00;99.90
37786;DHT22;23625;48.784;9.336;2022-12-07T04:23:43;3.00;99.90
37786;DHT22;23625;48.784;9.336;2022-12-07T04:26:09;3.00;99.90
37786;DHT22;23625;48.784;9.336;2022-12-07T04:28:34;2.90;99.90
37786;DHT22;23625;48.784;9.336;2022-12-07T04:31:00;2.80;99.90
37786;DHT22;23625;48.784;9.336;2022-12-07T04:33:26;2.80;99.90
37786;DHT22;23625;48.784;9.336;2022-12-07T04:35:51;2.70;99.90
37786;DHT22;23625;48.784;9.336;2022-12-07T04:38:17;2.70;99.90
37786;DHT22;23625;48.784;9.336;2022-12-07T04:40:42;2.60;99.90
37786;DHT22;23625;48.784;9.336;2022-12-07T04:43:08;2.50;99.90
37786;DHT22;23625;48.784;9.336;2022-12-07T04:45:33;2.40;99.90
37786;DHT22;23625;48.784;9.336;2022-12-07T04:47:59;2.30;99.90
37786;DHT22;23625;48.784;9.336;2022-12-07T04:50:24;2.30;99.90
37786;DHT22;23625;48.784;9.336;2022-12-07T04:52:50;2.20;99.90
37786;DHT22;23625;48.784;9.336;2022-12-07T04:55:16;2.20;99.90
37786;DHT22;23625;48.784;9.336;2022-12-07T04:57:41;2.20;99.90
37786;DHT22;23625;48.784;9.336;2022-12-07T05:00:07;2.20;99.90
37786;DHT22;23625;48.784;9.336;2022-12-07T05:02:33;2.20;99.90
37786;DHT22;23625;48.784;9.336;2022-12-07T05:04:58;2.20;99.90
37786;DHT22;23625;48.784;9.336;2022-12-07T05:07:24;2.20;99.90
37786;DHT22;23625;48.784;9.336;2022-12-07T05:09:49;2.20;99.90
37786;DHT22;23625;48.784;9.336;2022-12-07T05:12:15;2.30;99.90
37786;DHT22;23625;48.784;9.336;2022-12-07T05:14:40;2.30;99.90
37786;DHT22;23625;48.784;9.336;2022-12-07T05:17:06;2.30;99.90
37786;DHT22;23625;48.784;9.336;2022-12-07T05:19:32;2.30;99.90
37786;DHT22;23625;48.784;9.336;2022-12-07T05:21:57;2.40;99.90
37786;DHT22;23625;48.784;9.336;2022-12-07T05:24:23;2.40;99.90
37786;DHT22;23625;48.784;9.336;2022-12-07T05:26:48;2.40;99.90
37786;DHT22;23625;48.784;9.336;2022-12-07T05:29:15;2.40;99.90
37786;DHT22;23625;48.784;9.336;2022-12-07T05:31:42;2.40;99.90
37786;DHT22;23625;48.784;9.336;2022-12-07T05:34:07;2.40;99.90
37786;DHT22;23625;48.784;9.336;2022-12-07T05:36:33;2.40;99.90
37786;DHT22;23625;48.784;9.336;2022-12-07T05:38:59;2.40;99.90
37786;DHT22;23625;48.784;9.336;2022-12-07T05:41:25;2.40;99.90
37786;DHT22;23625;48.784;9.336;2022-12-07T05:44:09;2.50;99.90
37786;DHT22;23625;48.784;9.336;2022-12-07T05:46:35;2.60;99.90
37786;DHT22;23625;48.784;9.336;2022-12-07T05:49:01;2.60;99.90
37786;DHT22;23625;48.784;9.336;2022-12-07T05:51:27;2.60;99.90
37786;DHT22;23625;48.784;9.336;2022-12-07T05:53:53;2.50;99.90
37786;DHT22;23625;48.784;9.336;2022-12-07T05:56:18;2.60;99.90
37786;DHT22;23625;48.784;9.336;2022-12-07T05:58:44;2.60;99.90
37786;DHT22;23625;48.784;9.336;2022-12-07T06:01:29;2.60;99.90
37786;DHT22;23625;48.784;9.336;2022-12-07T06:03:54;2.50;99.90
37786;DHT22;23625;48.784;9.336;2022-12-07T06:06:20;2.50;99.90
37786;DHT22;23625;48.784;9.336;2022-12-07T06:08:46;2.40;99.90
37786;DHT22;23625;48.784;9.336;2022-12-07T06:11:11;2.40;99.90
37786;DHT22;23625;48.784;9.336;2022-12-07T06:13:56;2.40;99.90
37786;DHT22;23625;48.784;9.336;2022-12-07T06:16:21;2.20;99.90
37786;DHT22;23625;48.784;9.336;2022-12-07T06:18:47;2.20;99.90
37786;DHT22;23625;48.784;9.336;2022-12-07T06:21:12;2.10;99.90
37786;DHT22;23625;48.784;9.336;2022-12-07T06:23:38;2.20;99.90
37786;DHT22;23625;48.784;9.336;2022-12-07T06:26:04;2.10;99.90
37786;DHT22;23625;48.784;9.336;2022-12-07T06:28:29;2.10;99.90
37786;DHT22;23625;48.784;9.336;2022-12-07T06:31:01;2.10;99.90
37786;DHT22;23625;48.784;9.336;2022-12-07T06:33:28;2.00;99.90
37786;DHT22;23625;48.784;9.336;2022-12-07T06:35:54;2.00;99.90
37786;DHT22;23625;48.784;9.336;2022-12-07T06:38:20;2.00;99.90
37786;DHT22;23625;48.784;9.336;2022-12-07T06:40:46;2.00;99.90
37786;DHT22;23625;48.784;9.336;2022-12-07T06:43:11;2.00;99.90
37786;DHT22;23625;48.784;9.336;2022-12-07T06:45:37;2.00;99.90
37786;DHT22;23625;48.784;9.336;2022-12-07T06:48:02;2.00;99.90
37786;DHT22;23625;48.784;9.336;2022-12-07T06:50:28;2.00;99.90
37786;DHT22;23625;48.784;9.336;2022-12-07T06:52:54;2.00;99.90
37786;DHT22;23625;48.784;9.336;2022-12-07T06:55:19;2.00;99.90
37786;DHT22;23625;48.784;9.336;2022-12-07T06:57:45;2.10;99.90
37786;DHT22;23625;48.784;9.336;2022-12-07T07:00:11;2.10;99.90
37786;DHT22;23625;48.784;9.336;2022-12-07T07:02:37;2.00;99.90
37786;DHT22;23625;48.784;9.336;2022-12-07T07:05:03;2.00;99.90
37786;DHT22;23625;48.784;9.336;2022-12-07T07:07:28;2.00;99.90
37786;DHT22;23625;48.784;9.336;2022-12-07T07:09:54;2.00;99.90
37786;DHT22;23625;48.784;9.336;2022-12-07T07:12:20;2.00;99.90
37786;DHT22;23625;48.784;9.336;2022-12-07T07:14:45;2.00;99.90
37786;DHT22;23625;48.784;9.336;2022-12-07T07:17:11;2.00;99.90
37786;DHT22;23625;48.784;9.336;2022-12-07T07:19:37;2.00;99.90
37786;DHT22;23625;48.784;9.336;2022-12-07T07:22:03;2.00;99.90
37786;DHT22;23625;48.784;9.336;2022-12-07T07:24:29;2.00;99.90
37786;DHT22;23625;48.784;9.336;2022-12-07T07:26:55;2.00;99.90
37786;DHT22;23625;48.784;9.336;2022-12-07T07:29:20;2.10;99.90
37786;DHT22;23625;48.784;9.336;2022-12-07T07:31:46;2.10;99.90
37786;DHT22;23625;48.784;9.336;2022-12-07T07:34:12;2.10;99.90
37786;DHT22;23625;48.784;9.336;2022-12-07T07:36:37;2.10;99.90
37786;DHT22;23625;48.784;9.336;2022-12-07T07:39:03;2.10;99.90
37786;DHT22;23625;48.784;9.336;2022-12-07T07:41:30;2.20;99.90
37786;DHT22;23625;48.784;9.336;2022-12-07T07:43:55;2.20;99.90
37786;DHT22;23625;48.784;9.336;2022-12-07T07:46:21;2.20;99.90
37786;DHT22;23625;48.784;9.336;2022-12-07T07:48:47;2.30;99.90
37786;DHT22;23625;48.784;9.336;2022-12-07T07:51:12;2.30;99.90
37786;DHT22;23625;48.784;9.336;2022-12-07T07:53:38;2.30;99.90
37786;DHT22;23625;48.784;9.336;2022-12-07T07:56:03;2.30;99.90
37786;DHT22;23625;48.784;9.336;2022-12-07T07:58:29;2.30;99.90
37786;DHT22;23625;48.784;9.336;2022-12-07T08:00:55;2.40;99.90
37786;DHT22;23625;48.784;9.336;2022-12-07T08:03:20;2.50;99.90
37786;DHT22;23625;48.784;9.336;2022-12-07T08:05:46;2.50;99.90
37786;DHT22;23625;48.784;9.336;2022-12-07T08:08:11;2.60;99.90
37786;DHT22;23625;48.784;9.336;2022-12-07T08:10:37;2.70;99.90
37786;DHT22;23625;48.784;9.336;2022-12-07T08:13:03;2.60;99.90
37786;DHT22;23625;48.784;9.336;2022-12-07T08:15:41;2.70;99.90
37786;DHT22;23625;48.784;9.336;2022-12-07T08:18:07;2.90;99.90
37786;DHT22;23625;48.784;9.336;2022-12-07T08:20:33;3.10;99.90
37786;DHT22;23625;48.784;9.336;2022-12-07T08:23:00;3.20;99.90
37786;DHT22;23625;48.784;9.336;2022-12-07T08:25:27;3.20;99.90
37786;DHT22;23625;48.784;9.336;2022-12-07T08:27:53;3.20;99.90
37786;DHT22;23625;48.784;9.336;2022-12-07T08:30:20;3.20;99.90
37786;DHT22;23625;48.784;9.336;2022-12-07T08:32:46;3.20;99.90
37786;DHT22;23625;48.784;9.336;2022-12-07T08:35:12;3.30;99.90
37786;DHT22;23625;48.784;9.336;2022-12-07T08:37:38;3.30;99.90
37786;DHT22;23625;48.784;9.336;2022-12-07T08:40:07;3.40;99.90
37786;DHT22;23625;48.784;9.336;2022-12-07T08:42:33;3.50;99.90
37786;DHT22;23625;48.784;9.336;2022-12-07T08:45:07;3.60;99.90
37786;DHT22;23625;48.784;9.336;2022-12-07T08:47:35;3.70;99.90
37786;DHT22;23625;48.784;9.336;2022-12-07T08:50:02;3.70;99.90
37786;DHT22;23625;48.784;9.336;2022-12-07T08:52:32;3.60;99.90
37786;DHT22;23625;48.784;9.336;2022-12-07T08:54:59;3.60;99.90
37786;DHT22;23625;48.784;9.336;2022-12-07T08:57:27;3.80;99.90
37786;DHT22;23625;48.784;9.336;2022-12-07T08:59:53;3.80;99.90
37786;DHT22;23625;48.784;9.336;2022-12-07T09:02:18;3.90;99.90
37786;DHT22;23625;48.784;9.336;2022-12-07T09:04:44;3.90;99.90
37786;DHT22;23625;48.784;9.336;2022-12-07T09:07:09;4.00;99.90
37786;DHT22;23625;48.784;9.336;2022-12-07T09:09:35;3.90;99.90
37786;DHT22;23625;48.784;9.336;2022-12-07T09:12:01;4.00;99.90
37786;DHT22;23625;48.784;9.336;2022-12-07T09:14:26;3.60;99.90
37786;DHT22;23625;48.784;9.336;2022-12-07T09:16:52;4.00;99.90
37786;DHT22;23625;48.784;9.336;2022-12-07T09:19:17;4.20;99.90
37786;DHT22;23625;48.784;9.336;2022-12-07T09:21:43;4.20;99.90
37786;DHT22;23625;48.784;9.336;2022-12-07T09:24:09;5.00;99.90
37786;DHT22;23625;48.784;9.336;2022-12-07T09:26:35;4.20;99.90
37786;DHT22;23625;48.784;9.336;2022-12-07T09:29:02;4.10;99.90
37786;DHT22;23625;48.784;9.336;2022-12-07T09:31:27;4.10;99.90
37786;DHT22;23625;48.784;9.336;2022-12-07T09:33:58;4.10;99.90
37786;DHT22;23625;48.784;9.336;2022-12-07T09:36:24;5.00;99.90
37786;DHT22;23625;48.784;9.336;2022-12-07T09:38:50;4.20;99.90
37786;DHT22;23625;48.784;9.336;2022-12-07T09:41:15;4.30;99.90
37786;DHT22;23625;48.784;9.336;2022-12-07T09:43:41;4.30;99.90
37786;DHT22;23625;48.784;9.336;2022-12-07T09:46:11;4.40;99.90
37786;DHT22;23625;48.784;9.336;2022-12-07T09:48:38;4.40;99.90
37786;DHT22;23625;48.784;9.336;2022-12-07T09:51:22;4.40;99.90
37786;DHT22;23625;48.784;9.336;2022-12-07T09:53:49;4.50;99.90
37786;DHT22;23625;48.784;9.336;2022-12-07T09:56:16;4.50;99.90
37786;DHT22;23625;48.784;9.336;2022-12-07T09:58:43;4.50;99.90
37786;DHT22;23625;48.784;9.336;2022-12-07T10:03:37;4.70;99.90
37786;DHT22;23625;48.784;9.336;2022-12-07T10:06:04;4.80;99.90
37786;DHT22;23625;48.784;9.336;2022-12-07T10:08:31;4.80;99.90
37786;DHT22;23625;48.784;9.336;2022-12-07T10:10:57;4.70;99.90
37786;DHT22;23625;48.784;9.336;2022-12-07T10:13:44;4.80;99.90
37786;DHT22;23625;48.784;9.336;2022-12-07T10:16:39;4.80;99.90
37786;DHT22;23625;48.784;9.336;2022-12-07T10:19:32;4.90;99.90
37786;DHT22;23625;48.784;9.336;2022-12-07T10:22:13;4.90;99.90
37786;DHT22;23625;48.784;9.336;2022-12-07T10:24:43;4.90;99.90
37786;DHT22;23625;48.784;9.336;2022-12-07T10:27:26;5.00;99.90
37786;DHT22;23625;48.784;9.336;2022-12-07T10:29:53;5.00;99.90
37786;DHT22;23625;48.784;9.336;2022-12-07T10:34:44;5.00;99.90
37786;DHT22;23625;48.784;9.336;2022-12-07T10:39:49;5.10;99.90
37786;DHT22;23625;48.784;9.336;2022-12-07T10:42:29;5.20;99.90
37786;DHT22;23625;48.784;9.336;2022-12-07T10:47:38;5.10;99.90
37786;DHT22;23625;48.784;9.336;2022-12-07T11:06:54;5.20;99.90
37786;DHT22;23625;48.784;9.336;2022-12-07T11:17:54;5.20;99.90
37786;DHT22;23625;48.784;9.336;2022-12-07T11:25:45;5.30;99.90
37786;DHT22;23625;48.784;9.336;2022-12-07T11:28:49;5.30;99.90
37786;DHT22;23625;48.784;9.336;2022-12-07T11:37:15;5.40;99.90
37786;DHT22;23625;48.784;9.336;2022-12-07T11:39:56;5.30;99.90
37786;DHT22;23625;48.784;9.336;2022-12-07T11:42:29;5.30;99.90
37786;DHT22;23625;48.784;9.336;2022-12-07T11:45:02;5.30;99.90
37786;DHT22;23625;48.784;9.336;2022-12-07T11:55:53;5.30;99.90
37786;DHT22;23625;48.784;9.336;2022-12-07T12:04:06;5.20;99.90
37786;DHT22;23625;48.784;9.336;2022-12-07T12:06:32;5.30;99.90
37786;DHT22;23625;48.784;9.336;2022-12-07T12:12:08;5.30;99.90
37786;DHT22;23625;48.784;9.336;2022-12-07T12:20:35;5.20;99.90
37786;DHT22;23625;48.784;9.336;2022-12-07T12:23:23;5.10;99.90
37786;DHT22;23625;48.784;9.336;2022-12-07T12:25:55;4.90;99.90
37786;DHT22;23625;48.784;9.336;2022-12-07T12:28:39;4.90;99.90
37786;DHT22;23625;48.784;9.336;2022-12-07T12:31:16;4.90;99.90
37786;DHT22;23625;48.784;9.336;2022-12-07T12:33:53;4.90;99.90
37786;DHT22;23625;48.784;9.336;2022-12-07T12:36:23;4.90;99.90
37786;DHT22;23625;48.784;9.336;2022-12-07T12:59:31;4.80;99.90
37786;DHT22;23625;48.784;9.336;2022-12-07T13:05:18;4.90;99.90
37786;DHT22;23625;48.784;9.336;2022-12-07T13:15:41;4.90;99.90
37786;DHT22;23625;48.784;9.336;2022-12-07T13:21:00;4.90;99.90
37786;DHT22;23625;48.784;9.336;2022-12-07T13:23:56;4.90;99.90
37786;DHT22;23625;48.784;9.336;2022-12-07T13:26:23;5.00;99.90
37786;DHT22;23625;48.784;9.336;2022-12-07T13:29:12;5.00;99.90
37786;DHT22;23625;48.784;9.336;2022-12-07T13:31:41;4.90;99.90
37786;DHT22;23625;48.784;9.336;2022-12-07T13:34:39;5.00;99.90
37786;DHT22;23625;48.784;9.336;2022-12-07T13:39:49;5.00;99.90
37786;DHT22;23625;48.784;9.336;2022-12-07T13:42:29;5.00;99.90
37786;DHT22;23625;48.784;9.336;2022-12-07T13:44:57;5.10;99.90
37786;DHT22;23625;48.784;9.336;2022-12-07T13:47:43;5.10;99.90
37786;DHT22;23625;48.784;9.336;2022-12-07T13:50:29;5.10;99.90
37786;DHT22;23625;48.784;9.336;2022-12-07T13:52:56;5.00;99.90
37786;DHT22;23625;48.784;9.336;2022-12-07T13:55:32;5.10;99.90
37786;DHT22;23625;48.784;9.336;2022-12-07T13:58:01;5.00;99.90
37786;DHT22;23625;48.784;9.336;2022-12-07T14:00:28;5.00;99.90
37786;DHT22;23625;48.784;9.336;2022-12-07T14:03:01;5.00;99.90
37786;DHT22;23625;48.784;9.336;2022-12-07T14:05:32;5.00;99.90
37786;DHT22;23625;48.784;9.336;2022-12-07T14:10:52;4.90;99.90
37786;DHT22;23625;48.784;9.336;2022-12-07T14:13:26;5.10;99.90
37786;DHT22;23625;48.784;9.336;2022-12-07T14:15:54;5.00;99.90
37786;DHT22;23625;48.784;9.336;2022-12-07T14:18:35;5.10;99.90
37786;DHT22;23625;48.784;9.336;2022-12-07T14:21:06;5.10;99.90
37786;DHT22;23625;48.784;9.336;2022-12-07T14:23:32;5.00;99.90
37786;DHT22;23625;48.784;9.336;2022-12-07T14:26:27;5.10;99.90
37786;DHT22;23625;48.784;9.336;2022-12-07T14:28:52;5.00;99.90
37786;DHT22;23625;48.784;9.336;2022-12-07T14:31:21;5.00;99.90
37786;DHT22;23625;48.784;9.336;2022-12-07T14:33:49;4.90;99.90
37786;DHT22;23625;48.784;9.336;2022-12-07T14:36:14;4.90;99.90
37786;DHT22;23625;48.784;9.336;2022-12-07T14:38:40;4.80;99.90
37786;DHT22;23625;48.784;9.336;2022-12-07T14:41:12;4.80;99.90
37786;DHT22;23625;48.784;9.336;2022-12-07T14:43:57;4.80;99.90
37786;DHT22;23625;48.784;9.336;2022-12-07T14:46:23;4.80;99.90
37786;DHT22;23625;48.784;9.336;2022-12-07T14:48:49;4.80;99.90
37786;DHT22;23625;48.784;9.336;2022-12-07T14:51:15;4.80;99.90
37786;DHT22;23625;48.784;9.336;2022-12-07T14:53:44;4.80;99.90
37786;DHT22;23625;48.784;9.336;2022-12-07T14:56:11;4.80;99.90
37786;DHT22;23625;48.784;9.336;2022-12-07T14:58:37;4.90;99.90
37786;DHT22;23625;48.784;9.336;2022-12-07T15:01:03;4.90;99.90
37786;DHT22;23625;48.784;9.336;2022-12-07T15:03:28;4.80;99.90
37786;DHT22;23625;48.784;9.336;2022-12-07T15:05:55;4.90;99.90
37786;DHT22;23625;48.784;9.336;2022-12-07T15:08:20;4.90;99.90
37786;DHT22;23625;48.784;9.336;2022-12-07T15:10:46;4.80;99.90
37786;DHT22;23625;48.784;9.336;2022-12-07T15:13:11;4.80;99.90
37786;DHT22;23625;48.784;9.336;2022-12-07T15:15:56;4.80;99.90
37786;DHT22;23625;48.784;9.336;2022-12-07T15:18:23;4.80;99.90
37786;DHT22;23625;48.784;9.336;2022-12-07T15:20:49;4.80;99.90
37786;DHT22;23625;48.784;9.336;2022-12-07T15:23:15;4.80;99.90
37786;DHT22;23625;48.784;9.336;2022-12-07T15:25:42;4.70;99.90
37786;DHT22;23625;48.784;9.336;2022-12-07T15:28:07;4.70;99.90
37786;DHT22;23625;48.784;9.336;2022-12-07T15:30:33;4.70;99.90
37786;DHT22;23625;48.784;9.336;2022-12-07T15:32:58;4.70;99.90
37786;DHT22;23625;48.784;9.336;2022-12-07T15:35:24;4.80;99.90
37786;DHT22;23625;48.784;9.336;2022-12-07T15:37:50;4.70;99.90
37786;DHT22;23625;48.784;9.336;2022-12-07T15:40:15;4.70;99.90
37786;DHT22;23625;48.784;9.336;2022-12-07T15:42:41;4.60;99.90
37786;DHT22;23625;48.784;9.336;2022-12-07T15:45:08;4.60;99.90
37786;DHT22;23625;48.784;9.336;2022-12-07T15:47:43;4.60;99.90
37786;DHT22;23625;48.784;9.336;2022-12-07T15:50:14;4.60;99.90
37786;DHT22;23625;48.784;9.336;2022-12-07T15:52:41;4.60;99.90
37786;DHT22;23625;48.784;9.336;2022-12-07T15:55:07;4.60;99.90
37786;DHT22;23625;48.784;9.336;2022-12-07T15:57:34;4.60;99.90
37786;DHT22;23625;48.784;9.336;2022-12-07T16:00:01;4.50;99.90
37786;DHT22;23625;48.784;9.336;2022-12-07T16:02:26;4.50;99.90
37786;DHT22;23625;48.784;9.336;2022-12-07T16:04:52;4.50;99.90
37786;DHT22;23625;48.784;9.336;2022-12-07T16:07:18;4.50;99.90
37786;DHT22;23625;48.784;9.336;2022-12-07T16:09:45;4.50;99.90
37786;DHT22;23625;48.784;9.336;2022-12-07T16:12:12;4.40;99.90
37786;DHT22;23625;48.784;9.336;2022-12-07T16:14:38;4.40;99.90
37786;DHT22;23625;48.784;9.336;2022-12-07T16:17:04;4.40;99.90
37786;DHT22;23625;48.784;9.336;2022-12-07T16:19:31;4.40;99.90
37786;DHT22;23625;48.784;9.336;2022-12-07T16:21:57;4.40;99.90
37786;DHT22;23625;48.784;9.336;2022-12-07T16:24:23;4.40;99.90
37786;DHT22;23625;48.784;9.336;2022-12-07T16:26:48;4.40;99.90
37786;DHT22;23625;48.784;9.336;2022-12-07T16:29:14;4.40;99.90
37786;DHT22;23625;48.784;9.336;2022-12-07T16:31:40;4.40;99.90
37786;DHT22;23625;48.784;9.336;2022-12-07T16:34:06;4.40;99.90
37786;DHT22;23625;48.784;9.336;2022-12-07T16:36:32;4.30;99.90
37786;DHT22;23625;48.784;9.336;2022-12-07T16:38:59;4.30;99.90
37786;DHT22;23625;48.784;9.336;2022-12-07T16:41:25;4.40;99.90
37786;DHT22;23625;48.784;9.336;2022-12-07T16:43:50;4.30;99.90
37786;DHT22;23625;48.784;9.336;2022-12-07T16:46:16;4.40;99.90
37786;DHT22;23625;48.784;9.336;2022-12-07T16:48:42;4.40;99.90
37786;DHT22;23625;48.784;9.336;2022-12-07T16:51:11;4.30;99.90
37786;DHT22;23625;48.784;9.336;2022-12-07T16:53:39;4.20;99.90
37786;DHT22;23625;48.784;9.336;2022-12-07T16:56:13;4.20;99.90
37786;DHT22;23625;48.784;9.336;2022-12-07T16:58:41;4.10;99.90
37786;DHT22;23625;48.784;9.336;2022-12-07T17:01:16;4.10;99.90
37786;DHT22;23625;48.784;9.336;2022-12-07T17:03:42;4.20;99.90
37786;DHT22;23625;48.784;9.336;2022-12-07T17:06:19;4.20;99.90
37786;DHT22;23625;48.784;9.336;2022-12-07T17:08:45;4.10;99.90
37786;DHT22;23625;48.784;9.336;2022-12-07T17:11:20;4.10;99.90
37786;DHT22;23625;48.784;9.336;2022-12-07T17:13:46;4.00;99.90
37786;DHT22;23625;48.784;9.336;2022-12-07T17:16:44;3.90;99.90
37786;DHT22;23625;48.784;9.336;2022-12-07T17:19:12;3.90;99.90
37786;DHT22;23625;48.784;9.336;2022-12-07T17:21:38;3.80;99.90
37786;DHT22;23625;48.784;9.336;2022-12-07T17:24:06;3.80;99.90
37786;DHT22;23625;48.784;9.336;2022-12-07T17:26:33;3.70;99.90
37786;DHT22;23625;48.784;9.336;2022-12-07T17:28:58;3.70;99.90
37786;DHT22;23625;48.784;9.336;2022-12-07T17:31:25;3.60;99.90
37786;DHT22;23625;48.784;9.336;2022-12-07T17:33:50;3.50;99.90
37786;DHT22;23625;48.784;9.336;2022-12-07T17:36:22;3.50;99.90
37786;DHT22;23625;48.784;9.336;2022-12-07T17:38:48;3.40;99.90
37786;DHT22;23625;48.784;9.336;2022-12-07T17:44:04;3.30;99.90
37786;DHT22;23625;48.784;9.336;2022-12-07T17:46:31;3.30;99.90
37786;DHT22;23625;48.784;9.336;2022-12-07T17:48:58;3.20;99.90
37786;DHT22;23625;48.784;9.336;2022-12-07T17:51:24;3.20;99.90
37786;DHT22;23625;48.784;9.336;2022-12-07T17:54:09;3.40;99.90
37786;DHT22;23625;48.784;9.336;2022-12-07T17:56:35;3.30;99.90
37786;DHT22;23625;48.784;9.336;2022-12-07T17:59:01;3.30;99.90
37786;DHT22;23625;48.784;9.336;2022-12-07T18:01:26;3.20;99.90
37786;DHT22;23625;48.784;9.336;2022-12-07T18:03:52;3.20;99.90
37786;DHT22;23625;48.784;9.336;2022-12-07T18:06:18;3.20;99.90
37786;DHT22;23625;48.784;9.336;2022-12-07T18:08:43;3.20;99.90
37786;DHT22;23625;48.784;9.336;2022-12-07T18:11:09;3.20;99.90
37786;DHT22;23625;48.784;9.336;2022-12-07T18:13:35;3.20;99.90
37786;DHT22;23625;48.784;9.336;2022-12-07T18:16:05;3.20;99.90
37786;DHT22;23625;48.784;9.336;2022-12-07T18:18:31;3.20;99.90
37786;DHT22;23625;48.784;9.336;2022-12-07T18:20:57;3.20;99.90